Millinocket, Maine
Current Conditions -  °F | °C
As of 2:12 AM on Wednesday 22 Oct 2014 (Local Time) from KMLT Reporting Station
Light Rain Light Rain  
Wind Chill: 38°   Ceiling: 2900
Heat Index: 43°   Visibility: 10mi
Dew Point: 35°   Wind: 8mph
Humidity: 74%   Direction: 50°NE
Pressure: 30.25"   Gusts: NA
Location:  45.66°N, 68.71°W
Report Text: KMLT 220612Z AUTO 05007KT 10SM -RA BKN029 OVC036 06/02 A3025 RMK AO2 RAB05 P0000 T00610017
Loading
Personal Weather Stations






























Interactive Weather Map
Tropical Storm Tracking
New forecast layout! Learn more

10-Day Weather Forecast

Advertisements
Track Severe Weather on mobile